Time;durP1;ratioP1;P1;durP2;ratioP2;P2;SDS_P1;SDS_P2;PMS_P1;PMS_P2;Temp;Humidity;BMP_temperature;BMP_pressure;BME280_temperature;BME280_humidity;BME280_pressure;Samples;Min_cycle;Max_cycle;Signal;HPM_P1;HPM_P2
2022/04/26 03:36:08;;;;;;;19.27;11.85;;;;;;;11.06;100.00;100218.75;1768009;81;21009;-64
2022/04/26 03:38:41;;;;;;;17.87;11.97;;;;;;;11.17;100.00;100224.64;1767757;81;21068;-64
2022/04/26 03:41:08;;;;;;;19.85;11.55;;;;;;;11.20;100.00;100224.03;1768010;81;20993;-64
2022/04/26 03:43:37;;;;;;;18.73;11.35;;;;;;;11.33;100.00;100226.80;1767703;80;22270;-64
2022/04/26 03:46:09;;;;;;;15.93;11.30;;;;;;;11.75;100.00;100222.89;1767814;80;21068;-64
2022/04/26 03:48:37;;;;;;;16.95;10.70;;;;;;;11.47;100.00;100226.55;1767857;81;20986;-64
2022/04/26 03:51:04;;;;;;;18.67;10.80;;;;;;;11.60;100.00;100227.13;1767973;81;21041;-64
2022/04/26 03:53:33;;;;;;;15.75;10.40;;;;;;;11.79;100.00;100227.43;1767814;81;21053;-64
2022/04/26 03:56:04;;;;;;;19.17;10.55;;;;;;;12.79;100.00;100221.90;1767661;81;21085;-64
2022/04/26 03:58:33;;;;;;;17.10;10.58;;;;;;;12.27;100.00;100229.58;1768080;81;21037;-64
2022/04/26 04:01:01;;;;;;;13.93;9.43;;;;;;;12.53;100.00;100225.97;1767749;80;21052;-65
2022/04/26 04:03:31;;;;;;;16.57;9.53;;;;;;;12.58;100.00;100227.84;1767849;81;21023;-65
2022/04/26 04:05:59;;;;;;;16.35;9.75;;;;;;;12.85;100.00;100228.00;1767766;81;21068;-65
2022/04/26 04:08:26;;;;;;;15.80;10.23;;;;;;;12.86;100.00;100224.98;1767928;81;21026;-64
2022/04/26 04:10:56;;;;;;;15.58;10.08;;;;;;;13.34;100.00;100223.86;1767796;80;20986;-65
2022/04/26 04:13:24;;;;;;;14.63;9.18;;;;;;;13.15;100.00;100219.38;1767665;81;21003;-65
2022/04/26 04:15:51;;;;;;;16.12;10.03;;;;;;;13.13;100.00;100231.09;1767750;81;21041;-65
2022/04/26 04:21:06;;;;;;;17.42;10.30;;;;;;;13.17;100.00;100233.87;1767892;80;21053;-65
2022/04/26 04:23:41;;;;;;;14.47;9.28;;;;;;;13.32;100.00;100237.34;1767740;81;21095;-65
2022/04/26 04:26:08;;;;;;;17.90;9.95;;;;;;;13.47;100.00;100234.28;1768096;81;21065;-65
2022/04/26 04:28:37;;;;;;;17.10;9.85;;;;;;;13.73;100.00;100226.70;1767532;81;21013;-65
2022/04/26 04:31:04;;;;;;;14.75;9.75;;;;;;;13.70;100.00;100228.99;1768060;80;21534;-65
2022/04/26 04:33:32;;;;;;;18.10;10.00;;;;;;;13.94;100.00;100225.34;1767596;80;21006;-63
2022/04/26 04:36:00;;;;;;;16.57;10.38;;;;;;;14.09;100.00;100232.63;1735793;81;21084;-64
2022/04/26 04:38:27;;;;;;;15.05;10.03;;;;;;;14.21;100.00;100233.15;1767944;80;21034;-64
2022/04/26 04:40:56;;;;;;;18.52;9.95;;;;;;;14.29;100.00;100235.69;1767726;81;21018;-65
2022/04/26 04:43:25;;;;;;;14.53;9.43;;;;;;;14.46;100.00;100234.63;1767834;81;21522;-65
2022/04/26 04:45:53;;;;;;;14.68;9.45;;;;;;;14.54;100.00;100232.38;1744194;81;21572;-63
2022/04/26 04:48:21;;;;;;;14.18;9.83;;;;;;;14.71;100.00;100242.95;1773652;80;21079;-63
2022/04/26 04:50:48;;;;;;;19.10;9.95;;;;;;;14.81;100.00;100230.57;1773648;81;21005;-64
2022/04/26 04:53:20;;;;;;;14.40;9.75;;;;;;;15.11;100.00;100233.83;1806786;78;21036;-63
2022/04/26 04:55:47;;;;;;;16.57;9.50;;;;;;;15.16;100.00;100235.62;1836634;78;21027;-64
2022/04/26 04:58:16;;;;;;;14.95;9.90;;;;;;;15.29;100.00;100237.77;1836866;78;21028;-64
2022/04/26 05:00:43;;;;;;;16.15;9.83;;;;;;;15.35;100.00;100237.82;1837007;78;21032;-64
2022/04/26 05:03:11;;;;;;;24.55;10.35;;;;;;;15.69;100.00;100242.77;1836898;78;21067;-64
2022/04/26 05:05:39;;;;;;;15.95;9.70;;;;;;;15.72;100.00;100239.16;1836984;77;21000;-64
2022/04/26 05:08:11;;;;;;;15.28;9.85;;;;;;;15.75;100.00;100240.26;1837104;77;20984;-65
2022/04/26 05:10:41;;;;;;;14.83;9.33;;;;;;;15.89;100.00;100240.12;1807191;78;21036;-64
2022/04/26 05:13:08;;;;;;;12.45;8.85;;;;;;;16.06;100.00;100235.05;1837278;77;21027;-64
2022/04/26 05:15:38;;;;;;;15.48;9.53;;;;;;;16.23;100.00;100242.44;1836890;78;21040;-64
2022/04/26 05:18:06;;;;;;;15.23;8.90;;;;;;;16.39;100.00;100243.46;1837001;77;20984;-63
2022/04/26 05:20:34;;;;;;;16.50;9.25;;;;;;;16.54;100.00;100234.19;1837279;78;21024;-64
2022/04/26 05:25:35;;;;;;;12.47;8.78;;;;;;;16.60;100.00;100231.13;1789627;78;20980;-65
2022/04/26 05:28:04;;;;;;;12.82;8.95;;;;;;;16.64;100.00;100237.77;1836757;78;21031;-64
2022/04/26 05:30:32;;;;;;;16.42;9.03;;;;;;;16.85;100.00;100239.29;1836818;78;21047;-64
2022/04/26 05:33:00;;;;;;;13.58;8.60;;;;;;;16.93;100.00;100239.55;1837139;78;21020;-65
2022/04/26 05:35:28;;;;;;;13.35;8.33;;;;;;;16.96;100.00;100233.28;1836928;77;21012;-65
2022/04/26 05:37:57;;;;;;;13.25;7.75;;;;;;;17.23;100.00;100239.45;1837104;78;21016;-65
2022/04/26 05:40:24;;;;;;;12.85;7.85;;;;;;;17.36;100.00;100236.76;1836834;78;21082;-65
2022/04/26 05:42:53;;;;;;;11.48;7.67;;;;;;;17.58;100.00;100234.63;1836871;78;21067;-65
2022/04/26 05:45:21;;;;;;;13.05;7.75;;;;;;;17.57;100.00;100229.05;1836433;78;21023;-65
2022/04/26 05:47:50;;;;;;;12.35;7.37;;;;;;;17.62;100.00;100238.64;1834131;78;21023;-64
2022/04/26 05:50:17;;;;;;;13.13;6.90;;;;;;;17.82;100.00;100237.05;1834399;78;21024;-64
2022/04/26 05:52:45;;;;;;;12.10;6.40;;;;;;;18.00;100.00;100235.66;1834138;78;21101;-64
2022/04/26 05:55:14;;;;;;;10.60;5.90;;;;;;;18.22;100.00;100240.44;1834305;78;21012;-63
2022/04/26 05:57:44;;;;;;;11.15;5.95;;;;;;;18.35;100.00;100238.50;1834531;78;21032;-64
2022/04/26 06:00:14;;;;;;;9.53;5.53;;;;;;;18.51;100.00;100232.02;1834351;77;21011;-64
2022/04/26 06:02:43;;;;;;;9.83;5.05;;;;;;;18.77;100.00;100233.80;1834652;78;21007;-64
2022/04/26 06:05:12;;;;;;;6.92;4.40;;;;;;;18.79;100.00;100241.05;1834460;78;21058;-65
2022/04/26 06:07:41;;;;;;;9.25;4.25;;;;;;;19.06;98.77;100240.54;1834202;78;21035;-65
2022/04/26 06:10:10;;;;;;;5.17;3.70;;;;;;;19.44;96.40;100235.13;1834466;78;21020;-65
2022/04/26 06:12:44;;;;;;;6.65;3.60;;;;;;;19.63;90.28;100243.53;1834384;78;21032;-65
2022/04/26 06:15:12;;;;;;;6.22;3.52;;;;;;;19.84;86.81;100242.16;1807444;78;21519;-65
2022/04/26 06:17:41;;;;;;;5.37;3.47;;;;;;;20.03;84.22;100237.94;1834315;77;21488;-64
2022/04/26 06:20:11;;;;;;;6.17;3.42;;;;;;;20.20;82.86;100244.63;1834258;78;20993;-64
2022/04/26 06:22:40;;;;;;;6.80;3.70;;;;;;;20.33;81.08;100244.35;1834122;78;21028;-66
2022/04/26 06:25:09;;;;;;;7.22;3.65;;;;;;;20.73;79.46;100244.72;1834612;78;21020;-65
2022/04/26 06:27:38;;;;;;;7.50;3.83;;;;;;;20.58;76.86;100251.33;1834334;77;21008;-65
2022/04/26 06:30:08;;;;;;;5.30;3.35;;;;;;;20.75;80.07;100250.63;1834141;78;20985;-65
2022/04/26 06:32:36;;;;;;;6.40;3.72;;;;;;;20.85;78.78;100245.39;1834653;78;21539;-64
2022/04/26 06:35:05;;;;;;;7.40;3.83;;;;;;;22.13;72.87;100243.89;1834247;78;21024;-67
2022/04/26 06:37:34;;;;;;;8.23;3.75;;;;;;;22.55;68.75;100244.13;1834128;78;21016;-64
2022/04/26 06:40:05;;;;;;;7.97;3.80;;;;;;;21.36;72.31;100249.86;1834228;78;21016;-65
2022/04/26 06:42:34;;;;;;;4.25;3.30;;;;;;;21.21;73.67;100244.27;1834357;78;21023;-64
2022/04/26 06:45:04;;;;;;;7.85;3.37;;;;;;;21.25;72.06;100250.03;1834329;77;21017;-63
2022/04/26 06:47:32;;;;;;;7.35;3.02;;;;;;;21.35;69.26;100242.50;1834281;78;20980;-65
2022/04/26 06:50:00;;;;;;;4.87;3.05;;;;;;;21.16;68.05;100242.06;1834187;77;21048;-64
2022/04/26 06:52:28;;;;;;;5.50;2.70;;;;;;;21.15;72.36;100242.23;1834405;77;21484;-64
2022/04/26 06:54:57;;;;;;;4.60;2.67;;;;;;;21.41;69.74;100239.30;1834252;77;21067;-65
2022/04/26 06:57:24;;;;;;;4.75;2.50;;;;;;;21.54;66.79;100232.44;1834398;78;21528;-65
2022/04/26 06:59:53;;;;;;;6.62;2.65;;;;;;;21.64;66.27;100232.40;1834129;77;21028;-65
2022/04/26 07:02:20;;;;;;;5.00;2.60;;;;;;;21.73;67.18;100240.67;1834428;78;21012;-65
2022/04/26 07:04:48;;;;;;;8.15;2.58;;;;;;;21.84;67.60;100236.20;1834169;77;21116;-65
2022/04/26 07:07:15;;;;;;;4.22;2.67;;;;;;;21.80;66.43;100240.44;1834353;78;21012;-64
2022/04/26 07:09:43;;;;;;;5.85;2.65;;;;;;;21.95;65.89;100235.52;1834610;78;21500;-64
2022/04/26 07:12:12;;;;;;;6.70;2.75;;;;;;;21.93;66.59;100231.40;1834463;78;20988;-64
2022/04/26 07:14:40;;;;;;;5.55;2.90;;;;;;;22.11;66.13;100233.55;1834642;78;21040;-65
2022/04/26 07:17:08;;;;;;;6.92;2.77;;;;;;;22.19;65.77;100240.17;1834371;78;20984;-66
2022/04/26 07:19:35;;;;;;;6.67;3.12;;;;;;;22.12;66.70;100242.22;1834721;78;21532;-65
2022/04/26 07:22:07;;;;;;;5.15;2.90;;;;;;;22.27;65.21;100241.27;1834287;78;21016;-65
2022/04/26 07:24:35;;;;;;;5.50;3.20;;;;;;;22.34;65.35;100240.52;1807265;78;20996;-65
2022/04/26 07:27:04;;;;;;;4.12;3.00;;;;;;;22.44;66.89;100238.30;1834483;77;21020;-65
2022/04/26 07:29:32;;;;;;;6.05;3.40;;;;;;;22.58;65.85;100242.50;1834331;78;21531;-65
2022/04/26 07:32:01;;;;;;;4.05;2.90;;;;;;;22.74;66.56;100240.48;1834636;78;21040;-64
2022/04/26 07:34:29;;;;;;;3.72;2.85;;;;;;;22.86;65.69;100241.56;1834346;78;22229;-64
2022/04/26 07:36:59;;;;;;;3.75;2.70;;;;;;;22.84;64.50;100240.40;1834570;78;21024;-65
2022/04/26 07:39:33;;;;;;;5.92;2.70;;;;;;;22.67;60.85;100240.78;1832713;78;21069;-65
2022/04/26 07:42:04;;;;;;;6.60;2.80;;;;;;;22.77;60.95;100238.07;1832854;78;21038;-64
2022/04/26 07:44:32;;;;;;;6.20;2.70;;;;;;;22.74;61.01;100231.80;1831576;78;21034;-65
2022/04/26 07:46:59;;;;;;;4.53;2.55;;;;;;;22.89;59.78;100235.99;1822494;78;21043;-65
2022/04/26 07:49:27;;;;;;;4.53;2.70;;;;;;;22.95;60.05;100238.00;1816717;78;21062;-65
2022/04/26 07:51:56;;;;;;;7.22;2.83;;;;;;;23.02;60.08;100226.44;1816779;78;21046;-64
2022/04/26 07:54:23;;;;;;;6.53;2.70;;;;;;;23.00;58.77;100243.13;1816960;79;21073;-64
2022/04/26 07:56:51;;;;;;;6.87;2.75;;;;;;;23.04;61.71;100231.05;1816872;78;21550;-65
2022/04/26 07:59:20;;;;;;;6.67;3.00;;;;;;;23.07;60.75;100235.97;1816943;79;21047;-64
2022/04/26 08:01:49;;;;;;;4.42;2.72;;;;;;;23.30;61.69;100239.72;1816618;78;21094;-64
2022/04/26 08:04:16;;;;;;;4.00;2.80;;;;;;;23.22;62.06;100234.92;1816849;78;21094;-64
2022/04/26 08:06:45;;;;;;;4.75;2.80;;;;;;;23.27;61.69;100240.52;1816701;79;21055;-64
2022/04/26 08:09:15;;;;;;;4.47;2.70;;;;;;;23.43;60.87;100242.40;1816568;78;21102;-64
2022/04/26 08:11:42;;;;;;;6.90;2.90;;;;;;;23.75;62.53;100243.02;1816800;78;21019;-64
2022/04/26 08:14:10;;;;;;;4.87;2.60;;;;;;;23.49;61.99;100241.27;1816461;78;21046;-64
2022/04/26 08:16:38;;;;;;;6.45;2.98;;;;;;;23.78;61.05;100235.67;1816854;78;21500;-64
2022/04/26 08:19:08;;;;;;;5.33;2.92;;;;;;;24.04;59.68;100239.98;1816669;78;21062;-65
2022/04/26 08:21:35;;;;;;;5.47;2.70;;;;;;;25.38;57.33;100236.95;1816921;79;21089;-64
2022/04/26 08:29:37;;;;;;;4.08;2.25;;;;;;;24.35;56.53;100242.83;1816603;78;21539;-65
2022/04/26 08:32:06;;;;;;;4.17;2.52;;;;;;;23.75;55.86;100253.03;1816880;78;21043;-65
2022/04/26 08:34:35;;;;;;;4.62;2.22;;;;;;;23.47;56.47;100249.80;1816721;79;21496;-65
2022/04/26 08:37:03;;;;;;;5.15;2.33;;;;;;;23.67;55.29;100246.43;1816498;79;21062;-65
2022/04/26 08:39:32;;;;;;;3.45;2.12;;;;;;;23.74;55.61;100246.61;1816574;78;20984;-64
2022/04/26 08:42:02;;;;;;;5.62;2.20;;;;;;;23.70;54.83;100251.85;1816543;79;21058;-64
2022/04/26 08:44:31;;;;;;;4.12;2.30;;;;;;;23.73;54.34;100250.23;1816834;78;20991;-65
2022/04/26 08:52:50;;;;;;;4.25;2.20;;;;;;;23.92;54.13;100245.22;1835088;78;21105;-65
2022/04/26 08:55:18;;;;;;;3.30;2.47;;;;;;;23.95;54.50;100243.59;1803965;78;20983;-65
2022/04/26 08:57:47;;;;;;;4.40;2.50;;;;;;;24.01;55.99;100249.52;1832819;78;21554;-66
2022/04/26 09:00:15;;;;;;;3.72;2.22;;;;;;;23.95;54.50;100244.91;1833006;78;21023;-65
2022/04/26 09:02:42;;;;;;;4.17;2.45;;;;;;;24.31;55.98;100241.51;1833197;77;20999;-65
2022/04/26 09:05:13;;;;;;;5.53;2.33;;;;;;;24.38;52.92;100245.11;1832882;78;21018;-66
2022/04/26 09:07:48;;;;;;;4.53;2.67;;;;;;;24.57;53.83;100238.75;1832934;78;21446;-66
2022/04/26 09:10:16;;;;;;;3.55;2.45;;;;;;;24.83;50.97;100252.70;1832386;78;21003;-65
2022/04/26 09:13:09;;;;;;;4.85;2.70;;;;;;;24.34;52.93;100235.09;1833160;78;20998;-65
2022/04/26 09:15:50;;;;;;;4.45;2.72;;;;;;;24.47;54.75;100239.84;1833317;78;21534;-65
2022/04/26 09:18:30;;;;;;;4.67;2.98;;;;;;;24.57;53.99;100242.70;1833223;78;20963;-66
2022/04/26 09:21:08;;;;;;;3.80;3.02;;;;;;;24.27;53.19;100244.61;1832965;78;21494;-66
2022/04/26 09:23:41;;;;;;;5.42;2.92;;;;;;;24.18;53.69;100249.86;1833091;78;21022;-65
2022/04/26 09:26:11;;;;;;;7.05;2.80;;;;;;;24.46;53.65;100242.98;1832861;78;21023;-65
2022/04/26 09:28:45;;;;;;;3.05;2.60;;;;;;;24.64;52.63;100242.84;1833263;78;21015;-65
2022/04/26 09:31:26;;;;;;;5.22;2.80;;;;;;;24.94;53.55;100238.69;1793457;80;21027;-65
2022/04/26 09:33:57;;;;;;;4.50;2.70;;;;;;;25.03;51.41;100246.07;1777912;80;21030;-65
2022/04/26 09:36:28;;;;;;;3.33;2.70;;;;;;;25.14;53.48;100236.51;1778000;81;21034;-65
2022/04/26 09:39:00;;;;;;;6.22;2.67;;;;;;;25.14;53.48;100236.51;1777779;81;20986;-65
2022/04/26 09:41:29;;;;;;;2.20;1.92;;;;;;;25.44;51.03;100239.88;1776076;81;21061;-66
2022/04/26 09:44:04;;;;;;;3.27;2.20;;;;;;;25.44;51.03;100239.88;1777793;81;21522;-65
2022/04/26 09:46:48;;;;;;;4.65;2.30;;;;;;;25.56;52.31;100242.46;1776014;81;21053;-65
2022/04/26 09:49:25;;;;;;;3.37;2.20;;;;;;;25.36;51.14;100244.69;1767508;81;20988;-66
2022/04/26 09:51:56;;;;;;;4.00;2.20;;;;;;;25.15;51.40;100241.27;1766081;80;21021;-64
2022/04/26 09:54:23;;;;;;;4.00;2.10;;;;;;;25.00;51.40;100239.84;1767889;79;21533;-66
2022/04/26 09:56:53;;;;;;;4.55;2.27;;;;;;;25.00;50.94;100231.94;1772362;81;21029;-64
2022/04/26 09:59:29;;;;;;;4.05;2.27;;;;;;;24.94;50.88;100236.06;1772263;81;21532;-64
2022/04/26 10:02:00;;;;;;;3.87;2.10;;;;;;;25.04;50.99;100242.47;1770656;81;21077;-66
2022/04/26 10:04:31;;;;;;;4.03;2.40;;;;;;;24.97;50.04;100240.16;1772219;81;20990;-65
2022/04/26 10:07:10;;;;;;;5.35;2.08;;;;;;;25.08;51.29;100250.83;1772152;79;21064;-65
2022/04/26 10:09:38;;;;;;;3.42;2.20;;;;;;;24.99;51.05;100242.95;1772275;80;21613;-65
2022/04/26 10:12:07;;;;;;;3.50;2.20;;;;;;;24.73;50.50;100237.07;1772050;81;21044;-66
2022/04/26 10:14:37;;;;;;;5.17;1.95;;;;;;;24.87;50.36;100246.11;1772830;81;21030;-64
2022/04/26 10:17:04;;;;;;;4.25;2.05;;;;;;;25.09;49.02;100234.86;1772380;81;21037;-65
2022/04/26 10:19:39;;;;;;;5.65;2.02;;;;;;;25.20;49.52;100236.30;1739682;79;21898;-65
2022/04/26 10:22:11;;;;;;;4.30;1.72;;;;;;;25.07;47.91;100242.61;1772501;81;21021;-65
2022/04/26 10:24:40;;;;;;;6.40;1.90;;;;;;;25.10;48.55;100233.89;1772431;81;21481;-66
2022/04/26 10:27:20;;;;;;;3.20;2.00;;;;;;;25.27;49.96;100237.81;1772161;81;21026;-65
2022/04/26 10:29:51;;;;;;;5.42;2.10;;;;;;;25.50;48.93;100238.69;1769775;81;21056;-65
2022/04/26 10:32:34;;;;;;;4.90;1.85;;;;;;;25.44;49.53;100235.93;1772067;81;21111;-65
2022/04/26 10:35:28;;;;;;;3.92;1.80;;;;;;;25.52;50.08;100233.26;1772871;81;21009;-65
2022/04/26 10:38:15;;;;;;;3.47;2.00;;;;;;;25.54;49.43;100235.22;1772693;80;21057;-65
2022/04/26 10:41:07;;;;;;;2.77;2.10;;;;;;;25.54;49.70;100228.63;1772452;81;21124;-65
2022/04/26 10:43:35;;;;;;;5.70;2.30;;;;;;;25.72;49.29;100234.47;1772205;80;21013;-66
2022/04/26 10:46:14;;;;;;;4.08;1.80;;;;;;;25.55;47.26;100235.56;1772058;79;21056;-65
2022/04/26 10:48:43;;;;;;;3.83;1.87;;;;;;;25.78;48.80;100236.41;1773391;80;21076;-64
2022/04/26 10:51:35;;;;;;;7.55;2.58;;;;;;;25.84;48.38;100236.73;1772810;81;21041;-65
2022/04/26 10:54:04;;;;;;;2.58;1.90;;;;;;;25.75;47.73;100238.56;1770247;81;21015;-65
2022/04/26 10:56:32;;;;;;;4.80;2.25;;;;;;;25.41;47.26;100234.97;1770716;81;21519;-64
2022/04/26 10:59:02;;;;;;;4.70;2.10;;;;;;;25.27;48.42;100237.31;1769958;81;21071;-65
2022/04/26 11:01:31;;;;;;;3.65;1.90;;;;;;;25.27;47.94;100231.23;1726922;81;21019;-65
2022/04/26 11:04:01;;;;;;;5.17;2.40;;;;;;;25.41;49.58;100227.88;1769892;79;21739;-65
2022/04/26 11:06:38;;;;;;;5.17;2.12;;;;;;;25.55;48.94;100220.56;1770380;81;21448;-66
2022/04/26 11:09:11;;;;;;;4.30;2.47;;;;;;;25.57;49.80;100234.89;1770272;79;21003;-66
2022/04/26 11:11:53;;;;;;;6.05;2.25;;;;;;;25.45;48.47;100229.68;1770021;80;21007;-66
2022/04/26 11:14:22;;;;;;;5.40;2.10;;;;;;;25.77;49.08;100221.60;1769587;80;21030;-65
2022/04/26 11:17:05;;;;;;;4.53;2.20;;;;;;;25.78;49.20;100227.19;1769923;81;21538;-66
2022/04/26 11:19:37;;;;;;;7.70;2.30;;;;;;;25.76;47.48;100214.67;1770274;81;20979;-65
2022/04/26 11:22:10;;;;;;;4.65;2.12;;;;;;;25.89;49.23;100214.12;1770113;81;21011;-65
2022/04/26 11:30:12;;;;;;;6.33;2.30;;;;;;;25.76;47.78;100218.62;1753637;81;21090;-65
2022/04/26 11:32:44;;;;;;;4.40;2.27;;;;;;;25.63;47.29;100213.12;1770531;80;21019;-65
2022/04/26 11:35:20;;;;;;;5.65;2.42;;;;;;;25.79;48.84;100214.81;1770122;80;21542;-65
2022/04/26 11:37:56;;;;;;;4.22;2.02;;;;;;;25.67;47.57;100214.41;1770415;79;21066;-66
2022/04/26 11:40:30;;;;;;;6.97;2.33;;;;;;;25.83;49.22;100210.02;1770392;81;21509;-65
2022/04/26 11:43:15;;;;;;;4.58;2.20;;;;;;;25.80;47.31;100209.87;1770441;80;21038;-65
2022/04/26 11:45:48;;;;;;;4.55;2.40;;;;;;;25.84;46.87;100199.81;1770632;81;21043;-66
2022/04/26 11:48:21;;;;;;;7.45;2.40;;;;;;;25.98;48.73;100200.41;1766421;80;21007;-65
2022/04/26 11:50:51;;;;;;;4.60;2.27;;;;;;;26.07;49.10;100199.33;1765026;81;21022;-65
2022/04/26 11:53:21;;;;;;;5.95;1.98;;;;;;;25.92;47.70;100204.55;1764983;80;21050;-65
2022/04/26 11:56:00;;;;;;;6.22;2.12;;;;;;;26.11;48.17;100205.89;1765111;81;21003;-66
2022/04/26 11:58:38;;;;;;;4.70;2.12;;;;;;;26.05;46.75;100205.78;1764701;81;21066;-65
2022/04/26 12:01:15;;;;;;;4.83;2.50;;;;;;;26.22;46.67;100209.11;1765064;79;21464;-66
2022/04/26 12:03:51;;;;;;;4.25;2.02;;;;;;;26.08;47.12;100212.05;1763809;81;21165;-66
2022/04/26 12:06:32;;;;;;;6.40;2.35;;;;;;;26.25;46.80;100205.63;1764298;81;21542;-65
2022/04/26 12:09:04;;;;;;;3.27;2.17;;;;;;;26.35;47.76;100208.03;1763804;81;21050;-65
2022/04/26 12:11:38;;;;;;;5.72;2.37;;;;;;;26.34;46.42;100216.45;1764142;81;21015;-66
2022/04/26 12:14:12;;;;;;;5.03;2.30;;;;;;;26.18;45.88;100202.08;1764049;80;21633;-65
2022/04/26 12:16:49;;;;;;;5.30;2.67;;;;;;;26.35;46.37;100209.34;1763959;81;21042;-65
2022/04/26 12:19:17;;;;;;;4.20;2.40;;;;;;;26.25;47.75;100206.13;1763786;81;21070;-66
2022/04/26 12:21:52;;;;;;;5.95;2.65;;;;;;;26.40;46.81;100209.65;1764096;79;21051;-66
2022/04/26 12:24:26;;;;;;;4.72;2.25;;;;;;;26.46;46.07;100203.66;1763816;79;21563;-65
2022/04/26 12:27:15;;;;;;;8.23;2.60;;;;;;;26.57;46.05;100202.39;1764284;80;21038;-65
2022/04/26 12:29:54;;;;;;;3.72;2.30;;;;;;;26.44;45.79;100202.17;1763893;81;21043;-66
2022/04/26 12:32:24;;;;;;;5.25;2.30;;;;;;;26.67;47.47;100191.61;1763540;81;21011;-66
2022/04/26 12:34:58;;;;;;;4.37;2.45;;;;;;;26.46;45.71;100212.89;1764269;81;21012;-66
2022/04/26 12:37:31;;;;;;;6.25;2.80;;;;;;;26.16;47.47;100204.06;1764256;80;21027;-66
2022/04/26 12:40:10;;;;;;;6.47;2.70;;;;;;;25.67;47.56;100206.50;1763749;80;21066;-66
2022/04/26 12:42:39;;;;;;;3.58;2.60;;;;;;;25.83;47.96;100210.87;1763890;80;21641;-65
2022/04/26 12:45:22;;;;;;;7.30;2.65;;;;;;;26.13;48.09;100201.77;1764066;80;21476;-65
2022/04/26 12:51:17;;;;;;;4.33;2.42;;;;;;;26.39;47.18;100207.99;1799632;79;21538;-65
2022/04/26 12:53:45;;;;;;;9.93;2.80;;;;;;;25.97;46.93;100207.98;1799971;80;21085;-66
2022/04/26 12:56:14;;;;;;;5.78;2.27;;;;;;;26.16;47.32;100204.88;1799800;79;21058;-65
2022/04/26 12:58:45;;;;;;;4.72;2.20;;;;;;;26.18;47.16;100202.89;1799580;80;21074;-66
2022/04/26 13:01:15;;;;;;;4.17;2.20;;;;;;;26.34;47.54;100203.77;1799778;78;21050;-66
2022/04/26 13:03:47;;;;;;;3.83;2.10;;;;;;;26.45;48.15;100204.64;1799716;80;21054;-65
2022/04/26 13:06:17;;;;;;;4.80;2.10;;;;;;;26.15;46.71;100205.86;1799678;80;21042;-65
2022/04/26 13:08:48;;;;;;;3.67;2.15;;;;;;;25.89;45.66;100202.73;1799651;79;21038;-65
2022/04/26 13:11:18;;;;;;;2.27;1.85;;;;;;;25.85;46.31;100204.07;1799737;78;21046;-65
2022/04/26 13:13:48;;;;;;;3.77;1.98;;;;;;;26.02;46.61;100204.33;1799771;78;21054;-66
2022/04/26 13:16:17;;;;;;;5.15;2.20;;;;;;;26.08;46.89;100199.67;1799725;80;21049;-66
2022/04/26 13:18:46;;;;;;;4.40;2.25;;;;;;;26.21;47.70;100197.75;1799814;78;21062;-66
2022/04/26 13:21:15;;;;;;;3.83;1.72;;;;;;;26.07;48.00;100204.61;1799365;78;21034;-66
2022/04/26 13:23:43;;;;;;;5.35;2.08;;;;;;;26.31;47.87;100202.78;1799792;80;21085;-65
2022/04/26 13:26:12;;;;;;;5.65;1.95;;;;;;;26.30;48.37;100203.29;1771093;80;21026;-66
2022/04/26 13:28:39;;;;;;;4.08;2.02;;;;;;;26.26;48.18;100199.37;1799601;80;21034;-66
2022/04/26 13:31:09;;;;;;;4.65;1.75;;;;;;;26.22;49.13;100201.20;1799731;79;21035;-66
2022/04/26 13:33:37;;;;;;;6.72;1.82;;;;;;;26.27;48.51;100210.23;1799466;80;21104;-66
2022/04/26 13:36:07;;;;;;;6.25;2.10;;;;;;;26.26;48.33;100209.11;1799776;80;21042;-66
2022/04/26 13:38:36;;;;;;;5.45;1.98;;;;;;;25.99;48.57;100211.27;1799780;80;21086;-66
2022/04/26 13:41:06;;;;;;;4.22;1.80;;;;;;;25.99;47.79;100211.27;1799578;80;21058;-66
2022/04/26 13:43:35;;;;;;;4.83;1.80;;;;;;;26.10;48.32;100206.91;1799855;78;21529;-66
2022/04/26 13:46:04;;;;;;;4.85;1.67;;;;;;;25.93;47.38;100210.64;1799584;80;21471;-65
2022/04/26 13:48:31;;;;;;;6.65;1.90;;;;;;;26.46;47.19;100214.21;1796336;80;21102;-66
2022/04/26 13:51:00;;;;;;;4.10;1.52;;;;;;;26.81;45.72;100212.44;1794040;80;21530;-65
2022/04/26 13:53:30;;;;;;;3.60;1.80;;;;;;;27.13;45.09;100212.55;1794489;80;21507;-65
2022/04/26 13:55:59;;;;;;;3.72;1.60;;;;;;;26.67;45.14;100219.33;1794762;79;21007;-66
2022/04/26 13:58:27;;;;;;;3.50;1.70;;;;;;;26.32;45.22;100215.00;1794609;80;21003;-66
2022/04/26 14:00:54;;;;;;;4.47;1.47;;;;;;;26.11;45.31;100213.81;1794691;80;21035;-65
2022/04/26 14:03:21;;;;;;;4.10;1.60;;;;;;;26.04;46.67;100215.53;1794579;78;21113;-65
2022/04/26 14:05:49;;;;;;;2.77;1.40;;;;;;;26.13;46.89;100213.64;1794581;79;21039;-65
2022/04/26 14:08:17;;;;;;;8.55;1.70;;;;;;;26.03;47.56;100207.27;1794825;78;21034;-65
2022/04/26 14:10:46;;;;;;;6.67;1.65;;;;;;;25.96;47.66;100211.13;1794517;80;21030;-65
2022/04/26 14:13:13;;;;;;;3.17;1.60;;;;;;;25.77;47.35;100217.64;1794925;80;21440;-65
2022/04/26 14:24:04;;;;;;;9.08;1.82;;;;;;;26.00;47.61;100211.59;1826659;78;20999;-65
2022/04/26 14:26:30;;;;;;;3.33;1.80;;;;;;;26.03;48.13;100215.70;1827223;78;21073;-65
2022/04/26 14:28:57;;;;;;;2.25;1.60;;;;;;;26.18;48.34;100217.91;1826952;78;21059;-65
2022/04/26 14:31:24;;;;;;;4.85;1.80;;;;;;;25.81;49.41;100214.14;1826816;78;21023;-66
2022/04/26 14:33:53;;;;;;;4.95;1.95;;;;;;;25.25;48.86;100224.80;1827271;78;21023;-65
2022/04/26 14:36:21;;;;;;;6.10;1.70;;;;;;;25.23;48.77;100225.47;1826691;78;21531;-66
2022/04/26 14:38:49;;;;;;;5.17;1.80;;;;;;;25.40;49.38;100222.27;1827218;78;21019;-65
2022/04/26 14:41:18;;;;;;;3.75;1.50;;;;;;;25.37;49.66;100226.58;1826899;78;21015;-65
2022/04/26 14:43:47;;;;;;;5.08;2.40;;;;;;;25.37;49.69;100223.95;1826948;77;21063;-65
2022/04/26 14:46:15;;;;;;;5.05;2.90;;;;;;;25.58;50.34;100218.88;1827182;78;21132;-65
2022/04/26 14:48:44;;;;;;;6.65;3.22;;;;;;;25.36;49.99;100227.05;1811284;78;21044;-65
2022/04/26 14:51:11;;;;;;;6.55;2.80;;;;;;;25.18;50.82;100229.91;1796263;80;21129;-65
2022/04/26 14:53:41;;;;;;;6.47;2.60;;;;;;;25.02;51.07;100226.48;1796027;80;20987;-65
2022/04/26 14:56:10;;;;;;;5.58;2.20;;;;;;;24.73;51.68;100225.23;1796230;78;21020;-65
2022/04/26 14:58:37;;;;;;;4.47;2.15;;;;;;;24.86;51.55;100228.18;1796107;77;21027;-65
2022/04/26 15:01:06;;;;;;;7.05;2.40;;;;;;;24.79;51.39;100237.72;1796021;77;21028;-65
2022/04/26 15:03:35;;;;;;;6.65;2.25;;;;;;;24.71;50.88;100232.47;1795896;78;21032;-65
2022/04/26 15:06:03;;;;;;;3.83;2.00;;;;;;;24.68;50.46;100234.95;1796194;80;21499;-65
2022/04/26 15:11:19;;;;;;;5.65;2.00;;;;;;;25.01;50.30;100230.94;1796460;80;20983;-64
2022/04/26 15:16:39;;;;;;;5.87;2.10;;;;;;;24.85;48.01;100244.95;1795953;80;21082;-64
2022/04/26 15:19:09;;;;;;;4.03;2.00;;;;;;;24.85;48.01;100244.95;1796000;78;21031;-64
2022/04/26 15:21:38;;;;;;;7.00;1.57;;;;;;;24.83;49.13;100229.00;1796347;80;21023;-64
2022/04/26 15:24:06;;;;;;;4.83;1.90;;;;;;;24.92;48.59;100230.61;1796258;80;21496;-65
2022/04/26 15:26:34;;;;;;;8.60;2.47;;;;;;;25.04;48.50;100245.57;1796337;80;21503;-64
2022/04/26 15:29:02;;;;;;;3.87;2.02;;;;;;;25.01;48.66;100246.73;1795996;80;21039;-64
2022/04/26 15:31:29;;;;;;;4.62;1.92;;;;;;;25.10;48.70;100249.69;1796118;80;21023;-65
2022/04/26 15:33:58;;;;;;;3.70;1.82;;;;;;;24.92;48.53;100247.25;1796329;80;21070;-64
2022/04/26 15:36:26;;;;;;;5.35;1.95;;;;;;;24.50;49.89;100252.72;1796106;80;21067;-64
2022/04/26 15:38:58;;;;;;;6.58;2.00;;;;;;;24.36;50.30;100248.40;1796289;80;21046;-64
2022/04/26 15:41:32;;;;;;;4.47;1.87;;;;;;;24.16;50.41;100257.59;1796353;80;21543;-64
2022/04/26 15:44:00;;;;;;;6.22;2.25;;;;;;;23.92;50.65;100255.23;1796051;80;21043;-64
2022/04/26 15:46:27;;;;;;;5.50;2.08;;;;;;;23.99;51.28;100258.06;1796361;79;21546;-64
2022/04/26 15:48:55;;;;;;;6.60;2.50;;;;;;;24.24;50.34;100261.55;1814497;78;21038;-65
2022/04/26 15:51:25;;;;;;;8.15;2.75;;;;;;;24.32;50.65;100256.29;1832433;78;20995;-65